createdAt,value
2023-03-06T00:01:33.553Z,59.55
2023-03-06T00:04:08.109Z,58.74
2023-03-06T00:06:40.706Z,58.55
2023-03-06T00:09:13.802Z,58.72
2023-03-06T00:11:46.840Z,58.41
2023-03-06T00:14:19.201Z,58.20
2023-03-06T00:16:56.979Z,57.93
2023-03-06T00:19:30.173Z,57.50
2023-03-06T00:22:03.466Z,57.63
2023-03-06T00:24:36.553Z,57.94
2023-03-06T00:27:09.451Z,58.23
2023-03-06T00:29:42.651Z,58.23
2023-03-06T00:32:16.048Z,58.66
2023-03-06T00:34:51.708Z,59.02
2023-03-06T00:37:25.298Z,59.53
2023-03-06T00:39:58.286Z,59.05
2023-03-06T00:42:30.756Z,59.50
2023-03-06T00:45:03.169Z,58.89
2023-03-06T00:47:36.237Z,59.19
2023-03-06T00:50:10.073Z,59.23
2023-03-06T00:52:42.620Z,60.97
2023-03-06T00:55:15.106Z,62.53
2023-03-06T00:57:48.691Z,64.51
2023-03-06T01:00:22.255Z,66.68
2023-03-06T01:02:56.187Z,69.49
2023-03-06T01:05:30.134Z,72.70
2023-03-06T01:08:05.461Z,74.98
2023-03-06T01:10:41.732Z,77.76
2023-03-06T01:13:14.502Z,78.89
2023-03-06T01:15:47.500Z,79.90
2023-03-06T01:18:20.937Z,81.21
2023-03-06T01:20:53.573Z,82.70
2023-03-06T01:23:26.437Z,82.86
2023-03-06T01:26:00.159Z,83.31
2023-03-06T01:28:34.195Z,84.26
2023-03-06T01:31:06.572Z,84.86
2023-03-06T01:33:39.676Z,85.68
2023-03-06T01:36:13.181Z,86.84
2023-03-06T01:38:45.751Z,87.39
2023-03-06T01:41:21.303Z,88.11
2023-03-06T01:43:54.453Z,88.99
2023-03-06T01:46:44.892Z,89.43
2023-03-06T01:49:26.798Z,89.73
2023-03-06T01:52:17.528Z,90.22
2023-03-06T01:55:04.031Z,90.94
2023-03-06T01:57:50.369Z,91.35
2023-03-06T02:00:27.148Z,91.73
2023-03-06T02:03:11.016Z,92.20
2023-03-06T02:05:44.137Z,92.65
2023-03-06T02:08:20.386Z,93.14
2023-03-06T02:11:20.654Z,93.57
2023-03-06T02:13:55.339Z,93.93
2023-03-06T02:16:30.747Z,94.29
2023-03-06T02:19:03.794Z,94.63
2023-03-06T02:21:37.458Z,94.85
2023-03-06T02:24:43.857Z,95.44
2023-03-06T02:27:17.604Z,96.38
2023-03-06T02:29:49.928Z,96.26
2023-03-06T02:32:22.543Z,95.98
2023-03-06T02:34:57.927Z,95.89
2023-03-06T02:37:30.607Z,96.03
2023-03-06T02:40:09.039Z,96.49
2023-03-06T02:42:47.716Z,96.46
2023-03-06T02:45:28.085Z,96.61
2023-03-06T02:48:02.206Z,97.06
2023-03-06T02:50:36.054Z,97.30
2023-03-06T02:53:08.723Z,97.35
2023-03-06T02:55:41.357Z,97.52
2023-03-06T02:58:14.583Z,97.90
2023-03-06T03:00:47.749Z,98.08
2023-03-06T03:03:21.678Z,98.44
2023-03-06T03:05:53.998Z,98.33
2023-03-06T03:08:28.810Z,98.45
2023-03-06T03:11:03.165Z,98.35
2023-03-06T03:13:37.788Z,98.25
2023-03-06T03:16:15.472Z,98.39
2023-03-06T03:18:50.418Z,98.28
2023-03-06T03:21:24.476Z,98.22
2023-03-06T03:23:58.443Z,98.29
2023-03-06T03:26:32.350Z,98.14
2023-03-06T03:29:06.571Z,98.15
2023-03-06T03:31:39.656Z,98.17
2023-03-06T03:34:12.090Z,98.54
2023-03-06T03:36:46.864Z,98.45
2023-03-06T03:39:20.177Z,98.35
2023-03-06T03:41:53.169Z,98.11
2023-03-06T03:44:25.807Z,98.08
2023-03-06T03:46:59.652Z,98.16
2023-03-06T03:49:32.118Z,98.57
2023-03-06T03:52:05.975Z,98.71
2023-03-06T03:54:39.484Z,98.29
2023-03-06T03:57:11.797Z,98.26
2023-03-06T03:59:46.513Z,98.47
2023-03-06T04:02:23.974Z,98.24
2023-03-06T04:05:01.377Z,98.03
2023-03-06T04:07:34.370Z,98.13
2023-03-06T04:10:08.430Z,98.08
2023-03-06T04:12:40.404Z,98.27
2023-03-06T04:15:14.258Z,98.40
2023-03-06T04:17:47.069Z,98.26
2023-03-06T04:20:21.263Z,98.49
2023-03-06T04:22:55.015Z,98.21
2023-03-06T04:25:27.690Z,98.28
2023-03-06T04:28:00.611Z,98.05
2023-03-06T04:30:33.945Z,97.97
2023-03-06T04:33:07.270Z,98.12
2023-03-06T04:35:40.218Z,98.81
2023-03-06T04:38:14.443Z,98.43
2023-03-06T04:40:49.803Z,98.54
2023-03-06T04:43:23.586Z,98.26
2023-03-06T04:45:57.001Z,98.29
2023-03-06T04:48:30.146Z,98.38
2023-03-06T04:51:02.549Z,98.36
2023-03-06T04:53:36.314Z,98.63
2023-03-06T04:56:09.578Z,98.71
2023-03-06T04:58:44.137Z,98.74
2023-03-06T05:01:16.891Z,98.78
2023-03-06T05:03:50.168Z,98.75
2023-03-06T05:06:22.892Z,98.66
2023-03-06T05:08:55.503Z,98.63
2023-03-06T05:11:28.012Z,98.59
2023-03-06T05:14:01.137Z,98.51
2023-03-06T05:16:34.151Z,98.51
2023-03-06T05:19:06.900Z,98.62
2023-03-06T05:21:39.430Z,98.35
2023-03-06T05:24:12.067Z,98.21
2023-03-06T05:26:44.889Z,98.26
2023-03-06T05:29:17.318Z,98.08
2023-03-06T05:31:49.796Z,97.93
2023-03-06T05:34:22.155Z,97.72
2023-03-06T05:36:55.042Z,97.83
2023-03-06T05:39:28.449Z,97.69
2023-03-06T05:42:01.188Z,97.14
2023-03-06T05:44:36.091Z,96.50
2023-03-06T05:47:09.355Z,96.40
2023-03-06T05:49:41.984Z,95.94
2023-03-06T05:52:15.468Z,95.20
2023-03-06T05:54:52.087Z,95.22
2023-03-06T05:57:25.373Z,94.73
2023-03-06T05:59:58.975Z,94.68
2023-03-06T06:02:31.697Z,94.42
2023-03-06T06:05:05.142Z,93.93
2023-03-06T06:07:38.222Z,93.73
2023-03-06T06:10:12.735Z,92.92
2023-03-06T06:12:45.271Z,91.85
2023-03-06T06:15:17.989Z,91.80
2023-03-06T06:17:51.959Z,92.80
2023-03-06T06:20:24.703Z,92.91
2023-03-06T06:22:57.898Z,92.69
2023-03-06T06:25:30.503Z,92.93
2023-03-06T06:28:03.641Z,93.10
2023-03-06T06:30:36.617Z,92.51
2023-03-06T06:33:10.007Z,92.13
2023-03-06T06:35:42.300Z,91.66
2023-03-06T06:38:15.364Z,91.44
2023-03-06T06:41:18.070Z,91.40
2023-03-06T06:43:23.143Z,91.78
2023-03-06T06:46:08.854Z,90.85
2023-03-06T06:48:29.846Z,90.73
2023-03-06T06:51:02.373Z,90.33
2023-03-06T06:53:34.988Z,88.96
2023-03-06T06:56:08.874Z,89.09
2023-03-06T06:58:42.860Z,89.76
2023-03-06T07:01:16.731Z,90.06
2023-03-06T07:03:49.786Z,90.22
2023-03-06T07:06:23.085Z,89.64
2023-03-06T07:08:57.552Z,90.27
2023-03-06T07:11:30.340Z,89.43
2023-03-06T07:14:03.327Z,87.79
2023-03-06T07:16:35.947Z,89.01
2023-03-06T07:19:09.193Z,88.71
2023-03-06T07:21:42.017Z,85.15
2023-03-06T07:24:14.645Z,81.63
2023-03-06T07:26:50.792Z,75.83
2023-03-06T07:29:24.261Z,72.83
2023-03-06T07:31:56.682Z,70.68
2023-03-06T07:34:29.970Z,70.38
2023-03-06T07:37:02.467Z,69.95
2023-03-06T07:39:35.789Z,70.86
2023-03-06T07:42:08.589Z,70.40
2023-03-06T07:44:43.361Z,68.18
2023-03-06T07:47:16.520Z,65.51
2023-03-06T07:49:48.931Z,64.40
2023-03-06T07:52:21.689Z,66.88
2023-03-06T07:54:54.194Z,68.09
2023-03-06T07:57:26.717Z,69.04
2023-03-06T07:59:59.321Z,68.93
2023-03-06T08:02:32.507Z,66.29
2023-03-06T08:05:05.162Z,64.16
2023-03-06T08:07:37.851Z,62.27
2023-03-06T08:10:10.932Z,61.38
2023-03-06T08:12:43.984Z,61.22
2023-03-06T08:15:16.463Z,60.24
2023-03-06T08:17:50.328Z,60.98
2023-03-06T08:20:23.292Z,63.32
2023-03-06T08:22:55.887Z,64.75
2023-03-06T08:25:28.478Z,65.83
2023-03-06T08:28:01.789Z,65.90
2023-03-06T08:30:34.609Z,67.48
2023-03-06T08:33:07.224Z,67.96
2023-03-06T08:35:39.837Z,67.91
2023-03-06T08:38:12.661Z,67.75
2023-03-06T08:40:45.345Z,66.00
2023-03-06T08:43:18.521Z,63.12
2023-03-06T08:45:55.704Z,61.68
2023-03-06T08:48:28.806Z,62.93
2023-03-06T08:51:01.348Z,64.42
2023-03-06T08:53:43.201Z,63.55
2023-03-06T08:56:08.652Z,64.60
2023-03-06T08:58:41.031Z,66.06
2023-03-06T09:01:22.811Z,66.88
2023-03-06T09:03:57.433Z,68.39
2023-03-06T09:06:32.087Z,66.91
2023-03-06T09:09:05.012Z,60.76
2023-03-06T09:11:38.323Z,58.04
2023-03-06T09:14:10.905Z,56.48
2023-03-06T09:16:43.522Z,56.61
2023-03-06T09:19:16.024Z,54.57
2023-03-06T09:21:49.333Z,51.43
2023-03-06T09:24:21.788Z,49.22
2023-03-06T09:26:54.358Z,48.72
2023-03-06T09:29:29.466Z,49.74
2023-03-06T09:32:03.014Z,52.19
2023-03-06T09:34:36.624Z,51.10
2023-03-06T09:37:09.987Z,51.80
2023-03-06T09:39:42.490Z,50.41
2023-03-06T09:42:21.520Z,46.81
2023-03-06T09:44:57.216Z,43.54
2023-03-06T09:47:39.722Z,44.67
2023-03-06T09:50:31.905Z,43.88
2023-03-06T09:53:16.753Z,45.30
2023-03-06T09:56:08.772Z,45.67
2023-03-06T09:58:45.489Z,45.90
2023-03-06T10:01:27.727Z,44.53
2023-03-06T10:04:35.026Z,41.62
2023-03-06T10:07:18.063Z,40.63
2023-03-06T10:10:07.058Z,38.70
2023-03-06T10:12:44.418Z,38.96
2023-03-06T10:15:21.328Z,35.55
2023-03-06T10:17:54.479Z,36.42
2023-03-06T10:20:40.496Z,35.31
2023-03-06T10:23:51.420Z,36.40
2023-03-06T10:26:28.072Z,37.07
2023-03-06T10:29:26.386Z,37.60
2023-03-06T10:32:15.562Z,36.79
2023-03-06T10:34:48.850Z,38.63
2023-03-06T10:37:23.035Z,39.58
2023-03-06T10:39:59.970Z,38.10
2023-03-06T10:42:32.788Z,39.16
2023-03-06T10:45:12.838Z,38.64
2023-03-06T10:50:31.484Z,34.83
2023-03-06T10:53:10.556Z,35.48
2023-03-06T10:55:43.753Z,34.70
2023-03-06T10:58:29.385Z,32.12
2023-03-06T11:01:22.887Z,32.28
2023-03-06T11:03:55.345Z,30.75
2023-03-06T11:06:38.135Z,33.03
2023-03-06T11:09:23.568Z,33.90
2023-03-06T11:11:57.910Z,33.74
2023-03-06T11:14:30.485Z,33.04
2023-03-06T11:17:03.492Z,32.39
2023-03-06T11:19:36.353Z,32.25
2023-03-06T11:22:19.726Z,32.11
2023-03-06T11:24:52.683Z,31.72
2023-03-06T11:27:33.326Z,31.88
2023-03-06T11:30:08.936Z,31.73
2023-03-06T11:32:57.739Z,31.69
2023-03-06T11:35:35.889Z,32.02
2023-03-06T11:38:25.440Z,31.92
2023-03-06T11:41:03.592Z,31.50
2023-03-06T11:43:56.798Z,29.87
2023-03-06T11:46:42.823Z,30.62
2023-03-06T11:49:41.169Z,28.38
2023-03-06T11:52:20.917Z,29.27
2023-03-06T11:54:56.847Z,28.50
2023-03-06T11:57:49.707Z,25.38
2023-03-06T12:00:55.541Z,26.54
2023-03-06T12:03:44.622Z,26.99
2023-03-06T12:06:57.090Z,26.16
2023-03-06T12:09:43.608Z,26.59
2023-03-06T12:12:57.328Z,26.83
2023-03-06T12:16:16.393Z,28.96
2023-03-06T12:19:30.350Z,32.16
2023-03-06T12:22:37.651Z,30.96
2023-03-06T12:25:45.993Z,32.07
2023-03-06T12:28:47.087Z,35.07
2023-03-06T12:32:08.826Z,35.62
2023-03-06T12:35:17.802Z,36.22
2023-03-06T12:38:22.311Z,36.90
2023-03-06T12:41:33.287Z,37.52
2023-03-06T12:44:45.417Z,37.34
2023-03-06T12:47:22.066Z,37.69
2023-03-06T12:50:02.020Z,37.15
2023-03-06T12:52:34.930Z,36.36
2023-03-06T12:55:08.851Z,36.77
2023-03-06T12:57:42.155Z,37.93
2023-03-06T13:00:37.797Z,36.69
2023-03-06T13:03:40.263Z,35.08
2023-03-06T13:06:36.536Z,34.83
2023-03-06T13:09:29.314Z,36.56
2023-03-06T13:12:10.241Z,36.57
2023-03-06T13:14:54.200Z,36.78
2023-03-06T13:17:29.139Z,36.91
2023-03-06T13:20:19.849Z,37.53
2023-03-06T13:22:52.721Z,37.84
2023-03-06T13:25:33.572Z,39.17
2023-03-06T13:28:06.810Z,39.19
2023-03-06T13:30:43.914Z,38.40
2023-03-06T13:33:35.068Z,38.34
2023-03-06T13:36:33.687Z,38.59
2023-03-06T13:39:09.455Z,38.71
2023-03-06T13:41:55.863Z,39.86
2023-03-06T13:44:33.182Z,38.59
2023-03-06T13:47:21.682Z,38.87
2023-03-06T13:49:54.006Z,38.67
2023-03-06T13:52:34.408Z,38.59
2023-03-06T13:55:17.879Z,38.66
2023-03-06T13:58:23.645Z,39.70
2023-03-06T14:01:23.680Z,40.27
2023-03-06T14:04:44.666Z,39.87
2023-03-06T14:07:34.834Z,40.10
2023-03-06T14:10:21.112Z,40.42
2023-03-06T14:13:04.923Z,39.98
2023-03-06T14:15:49.512Z,39.22
2023-03-06T14:18:41.273Z,39.70
2023-03-06T14:21:15.994Z,39.69
2023-03-06T14:23:47.644Z,39.89
2023-03-06T14:26:23.115Z,39.93
2023-03-06T14:29:20.596Z,40.17
2023-03-06T14:31:56.003Z,40.19
2023-03-06T14:34:35.963Z,40.20
2023-03-06T14:37:30.123Z,39.45
2023-03-06T14:40:02.454Z,39.59
2023-03-06T14:42:35.312Z,38.86
2023-03-06T14:45:12.618Z,39.01
2023-03-06T14:47:53.448Z,38.70
2023-03-06T14:50:30.820Z,38.99
2023-03-06T14:53:26.194Z,38.72
2023-03-06T14:56:06.439Z,38.39
2023-03-06T14:59:01.452Z,39.73
2023-03-06T15:01:38.446Z,40.00
2023-03-06T15:04:40.410Z,40.55
2023-03-06T15:07:19.639Z,40.38
2023-03-06T15:09:53.880Z,39.46
2023-03-06T15:12:45.000Z,40.10
2023-03-06T15:15:22.457Z,39.82
2023-03-06T15:17:55.527Z,39.25
2023-03-06T15:21:20.280Z,40.44
2023-03-06T15:23:55.489Z,39.72
2023-03-06T15:26:33.465Z,40.03
2023-03-06T15:29:19.005Z,39.96
2023-03-06T15:31:52.099Z,40.59
2023-03-06T15:34:24.723Z,40.20
2023-03-06T15:36:59.546Z,41.13
2023-03-06T15:39:38.952Z,41.44
2023-03-06T15:42:25.206Z,41.85
2023-03-06T15:45:02.563Z,42.54
2023-03-06T15:47:35.116Z,43.88
2023-03-06T15:50:30.395Z,44.75
2023-03-06T15:53:02.049Z,46.13
2023-03-06T15:55:34.621Z,46.39
2023-03-06T15:58:07.125Z,46.99
2023-03-06T16:00:39.862Z,47.53
2023-03-06T16:03:13.233Z,48.13
2023-03-06T16:05:47.491Z,48.49
2023-03-06T16:08:20.042Z,48.75
2023-03-06T16:10:54.774Z,49.03
2023-03-06T16:13:29.005Z,49.46
2023-03-06T16:16:01.488Z,49.63
2023-03-06T16:18:34.559Z,50.07
2023-03-06T16:21:07.444Z,50.42
2023-03-06T16:23:41.283Z,50.82
2023-03-06T16:26:27.682Z,51.17
2023-03-06T16:29:01.073Z,51.08
2023-03-06T16:31:33.922Z,51.35
2023-03-06T16:34:07.849Z,51.40
2023-03-06T16:36:40.247Z,51.53
2023-03-06T16:39:37.520Z,51.37
2023-03-06T16:42:10.272Z,51.25
2023-03-06T16:44:42.878Z,50.62
2023-03-06T16:47:16.138Z,50.60
2023-03-06T16:49:48.654Z,50.69
2023-03-06T16:52:22.227Z,50.97
2023-03-06T16:54:55.864Z,51.04
2023-03-06T16:57:30.024Z,50.98
2023-03-06T17:00:03.318Z,50.80
2023-03-06T17:02:36.052Z,50.87
2023-03-06T17:05:09.263Z,50.85
2023-03-06T17:07:42.576Z,50.83
2023-03-06T17:10:16.873Z,50.77
2023-03-06T17:12:50.349Z,51.48
2023-03-06T17:15:23.471Z,51.13
2023-03-06T17:17:58.058Z,51.35
2023-03-06T17:20:31.296Z,51.54
2023-03-06T17:23:04.056Z,51.46
2023-03-06T17:25:38.226Z,51.49
2023-03-06T17:28:11.712Z,51.60
2023-03-06T17:30:44.184Z,51.65
2023-03-06T17:33:17.671Z,51.93
2023-03-06T17:35:50.726Z,52.29
2023-03-06T17:38:23.916Z,52.61
2023-03-06T17:40:56.336Z,52.75
2023-03-06T17:43:28.697Z,53.04
2023-03-06T17:46:05.798Z,53.29
2023-03-06T17:48:38.353Z,53.37
2023-03-06T17:51:12.163Z,53.95
2023-03-06T17:53:45.173Z,54.23
2023-03-06T17:56:18.999Z,54.62
2023-03-06T17:58:51.632Z,54.96
2023-03-06T18:01:26.921Z,55.33
2023-03-06T18:04:00.107Z,55.73
2023-03-06T18:06:57.084Z,56.27
2023-03-06T18:09:39.403Z,56.83
2023-03-06T18:12:11.815Z,57.60
2023-03-06T18:14:44.532Z,57.82
2023-03-06T18:17:17.356Z,58.20
2023-03-06T18:19:49.852Z,58.71
2023-03-06T18:22:23.199Z,59.14
2023-03-06T18:24:55.628Z,59.60
2023-03-06T18:27:28.299Z,59.92
2023-03-06T18:30:00.878Z,60.29
2023-03-06T18:32:33.626Z,60.62
2023-03-06T18:35:06.511Z,61.00
2023-03-06T18:37:39.424Z,61.64
2023-03-06T18:40:13.901Z,62.13
2023-03-06T18:42:48.681Z,62.72
2023-03-06T18:45:21.312Z,63.22
2023-03-06T18:47:53.701Z,63.66
2023-03-06T18:50:27.141Z,64.35
2023-03-06T18:52:59.545Z,64.75
2023-03-06T18:55:32.775Z,65.29
2023-03-06T18:58:05.925Z,65.70
2023-03-06T19:00:40.086Z,66.32
2023-03-06T19:03:13.358Z,66.81
2023-03-06T19:05:49.021Z,67.33
2023-03-06T19:08:21.028Z,67.96
2023-03-06T19:10:53.846Z,68.70
2023-03-06T19:13:26.873Z,69.27
2023-03-06T19:15:59.259Z,69.69
2023-03-06T19:18:32.389Z,70.38
2023-03-06T19:21:13.135Z,70.67
2023-03-06T19:23:47.527Z,71.12
2023-03-06T19:26:20.017Z,71.63
2023-03-06T19:28:52.667Z,71.86
2023-03-06T19:31:27.656Z,72.89
2023-03-06T19:34:00.650Z,73.50
2023-03-06T19:36:34.423Z,74.00
2023-03-06T19:39:09.638Z,74.32
2023-03-06T19:41:42.123Z,75.07
2023-03-06T19:44:16.345Z,75.24
2023-03-06T19:46:58.824Z,75.74
2023-03-06T19:49:31.423Z,75.51
2023-03-06T19:52:05.443Z,75.78
2023-03-06T19:54:38.573Z,75.81
2023-03-06T19:57:12.142Z,76.54
2023-03-06T19:59:44.865Z,76.45
2023-03-06T20:02:20.211Z,76.44
2023-03-06T20:04:53.577Z,76.08
2023-03-06T20:07:26.345Z,76.30
2023-03-06T20:10:00.606Z,76.20
2023-03-06T20:12:34.624Z,76.44
2023-03-06T20:15:08.990Z,77.08
2023-03-06T20:17:41.389Z,76.77
2023-03-06T20:20:14.941Z,77.03
2023-03-06T20:22:47.796Z,77.08
2023-03-06T20:25:20.731Z,76.67
2023-03-06T20:27:53.487Z,76.77
2023-03-06T20:30:29.500Z,76.87
2023-03-06T20:32:59.607Z,76.97
2023-03-06T20:35:32.101Z,77.45
2023-03-06T20:38:05.291Z,77.32
2023-03-06T20:41:02.666Z,77.20
2023-03-06T20:43:35.963Z,77.58
2023-03-06T20:46:08.817Z,77.61
2023-03-06T20:48:42.183Z,77.82
2023-03-06T20:51:28.103Z,78.12
2023-03-06T20:54:01.834Z,78.00
2023-03-06T20:56:36.907Z,78.07
2023-03-06T20:59:11.861Z,78.07
2023-03-06T21:01:45.958Z,78.42
2023-03-06T21:04:20.361Z,78.50
2023-03-06T21:06:55.015Z,78.97
2023-03-06T21:09:27.649Z,79.07
2023-03-06T21:12:00.728Z,79.36
2023-03-06T21:14:33.350Z,79.42
2023-03-06T21:17:06.010Z,79.37
2023-03-06T21:19:40.040Z,79.43
2023-03-06T21:22:13.781Z,79.74
2023-03-06T21:24:46.168Z,79.81
2023-03-06T21:27:19.125Z,80.13
2023-03-06T21:29:51.542Z,79.88
2023-03-06T21:32:24.075Z,79.80
2023-03-06T21:34:56.658Z,79.80
2023-03-06T21:37:29.849Z,79.67
2023-03-06T21:40:02.454Z,80.11
2023-03-06T21:42:37.348Z,79.93
2023-03-06T21:45:09.577Z,80.07
2023-03-06T21:47:43.042Z,80.09
2023-03-06T21:50:16.150Z,80.55
2023-03-06T21:52:48.558Z,80.92
2023-03-06T21:55:23.180Z,81.05
2023-03-06T21:57:56.513Z,81.28
2023-03-06T22:00:29.194Z,81.35
2023-03-06T22:03:03.817Z,81.51
2023-03-06T22:05:36.277Z,82.08
2023-03-06T22:08:09.910Z,82.97
2023-03-06T22:10:43.191Z,83.17
2023-03-06T22:13:16.394Z,83.24
2023-03-06T22:15:55.183Z,83.33
2023-03-06T22:18:28.204Z,83.46
2023-03-06T22:21:01.011Z,83.53
2023-03-06T22:23:35.031Z,83.65
2023-03-06T22:26:09.372Z,83.87
2023-03-06T22:28:42.898Z,84.32
2023-03-06T22:31:18.643Z,84.55
2023-03-06T22:33:53.340Z,84.85
2023-03-06T22:36:26.228Z,85.12
2023-03-06T22:39:01.057Z,85.04
2023-03-06T22:41:33.651Z,85.08
2023-03-06T22:44:06.198Z,85.16
2023-03-06T22:46:39.440Z,85.30
2023-03-06T22:49:13.251Z,85.26
2023-03-06T22:51:45.802Z,85.11
2023-03-06T22:54:18.210Z,84.88
2023-03-06T22:56:50.599Z,85.04
2023-03-06T22:59:23.544Z,84.91
2023-03-06T23:01:57.741Z,85.01
2023-03-06T23:04:30.509Z,85.33
2023-03-06T23:07:04.724Z,85.45
2023-03-06T23:09:37.823Z,85.60
2023-03-06T23:12:27.920Z,85.85
2023-03-06T23:15:18.474Z,85.88
2023-03-06T23:18:08.867Z,86.12
2023-03-06T23:20:59.708Z,85.93
2023-03-06T23:23:52.207Z,86.08
2023-03-06T23:26:27.748Z,86.12
2023-03-06T23:29:00.728Z,86.22
2023-03-06T23:31:33.571Z,86.03
2023-03-06T23:34:06.298Z,86.12
2023-03-06T23:36:39.179Z,86.50
2023-03-06T23:39:13.714Z,86.55
2023-03-06T23:41:46.730Z,86.82
2023-03-06T23:44:19.770Z,86.95
2023-03-06T23:46:53.303Z,87.29
2023-03-06T23:49:26.250Z,87.70
2023-03-06T23:51:59.386Z,87.60
2023-03-06T23:54:33.374Z,87.58
2023-03-06T23:57:05.734Z,87.65
2023-03-06T23:59:38.282Z,87.86
